Time;durP1;ratioP1;P1;durP2;ratioP2;P2;SDS_P1;SDS_P2;PMS_P1;PMS_P2;Temp;Humidity;BMP_temperature;BMP_pressure;BME280_temperature;BME280_humidity;BME280_pressure;Samples;Min_cycle;Max_cycle;Signal;HPM_P1;HPM_P2
2021/06/06 00:00:54;;;;;;;4.78;1.70;;;;;;;12.77;71.43;99413.33;1722087;81;21093;-56
2021/06/06 00:03:28;;;;;;;4.33;2.17;;;;;;;12.78;71.50;99407.84;1718767;82;21405;-56
2021/06/06 00:06:09;;;;;;;4.90;2.65;;;;;;;12.80;71.53;99401.87;1733841;81;21884;-57
2021/06/06 00:08:35;;;;;;;13.45;4.00;;;;;;;12.82;71.51;99401.30;1670673;83;20978;-57
2021/06/06 00:11:08;;;;;;;8.58;2.87;;;;;;;12.85;71.78;99398.38;1661468;84;21004;-57
2021/06/06 00:13:38;;;;;;;3.45;2.50;;;;;;;12.86;71.82;99396.55;1707873;82;21807;-56
2021/06/06 00:16:12;;;;;;;3.87;2.70;;;;;;;12.87;71.85;99397.81;1711722;81;21343;-57
2021/06/06 00:18:40;;;;;;;8.17;2.60;;;;;;;12.86;71.72;99399.25;1710893;82;21623;-56
2021/06/06 00:21:06;;;;;;;3.10;1.87;;;;;;;12.83;71.57;99389.53;1710730;82;20953;-56
2021/06/06 00:23:32;;;;;;;6.17;2.22;;;;;;;12.79;71.52;99391.16;1711297;82;20944;-56
2021/06/06 00:26:00;;;;;;;7.92;2.37;;;;;;;12.72;71.55;99391.16;1714928;82;21078;-57
2021/06/06 00:28:27;;;;;;;3.02;2.30;;;;;;;12.71;71.62;99388.06;1712534;82;20872;-57
2021/06/06 00:30:53;;;;;;;3.45;2.20;;;;;;;12.70;71.69;99391.25;1717670;82;20970;-57
2021/06/06 00:33:20;;;;;;;8.53;2.35;;;;;;;12.70;71.74;99392.59;1706299;81;21592;-57
2021/06/06 00:35:47;;;;;;;7.08;2.37;;;;;;;12.66;71.78;99387.02;1714495;81;20939;-56
2021/06/06 00:38:13;;;;;;;5.05;2.70;;;;;;;12.62;71.61;99392.20;1715666;82;21813;-57
2021/06/06 00:40:43;;;;;;;3.65;2.33;;;;;;;12.57;71.55;99392.13;1714420;81;20947;-57
2021/06/06 00:43:11;;;;;;;2.37;2.15;;;;;;;12.55;71.48;99395.39;1712544;81;21004;-56
2021/06/06 00:45:39;;;;;;;3.72;2.40;;;;;;;12.50;71.51;99399.73;1716904;82;21521;-57
2021/06/06 00:48:07;;;;;;;9.03;2.40;;;;;;;12.42;71.61;99391.21;1711275;81;20935;-57
2021/06/06 00:50:41;;;;;;;3.62;2.12;;;;;;;12.35;71.60;99392.55;1709069;82;21484;-57
2021/06/06 00:53:16;;;;;;;2.02;1.55;;;;;;;12.27;71.60;99390.33;1713968;82;21607;-57
2021/06/06 00:55:42;;;;;;;5.00;2.05;;;;;;;12.21;71.72;99389.36;1709252;81;21081;-57
2021/06/06 00:58:11;;;;;;;3.70;2.40;;;;;;;12.18;71.63;99388.66;1712091;82;21042;-57
2021/06/06 01:00:49;;;;;;;8.95;2.10;;;;;;;12.16;71.68;99382.03;1711652;82;21092;-57
2021/06/06 01:03:16;;;;;;;4.37;2.75;;;;;;;12.17;71.72;99382.88;1667721;82;21935;-57
2021/06/06 01:05:50;;;;;;;4.08;1.57;;;;;;;12.16;71.68;99383.86;1711820;81;21648;-57
2021/06/06 01:08:19;;;;;;;4.22;2.08;;;;;;;12.15;71.69;99380.30;1712207;82;21009;-57
2021/06/06 01:10:54;;;;;;;4.37;2.30;;;;;;;12.13;71.53;99380.38;1735997;81;21088;-57
2021/06/06 01:13:31;;;;;;;7.00;2.42;;;;;;;12.10;71.48;99376.98;1729096;81;21471;-57
2021/06/06 01:16:10;;;;;;;10.23;2.25;;;;;;;12.05;71.47;99373.23;1711843;82;21482;-58
2021/06/06 01:18:42;;;;;;;3.92;2.30;;;;;;;12.02;71.47;99377.93;1709724;82;21085;-58
2021/06/06 01:21:16;;;;;;;3.25;2.37;;;;;;;11.98;71.59;99384.48;1712804;81;20919;-57
2021/06/06 01:24:21;;;;;;;;;;;;;;;11.92;71.64;99381.66;1719060;81;21073;-58
2021/06/06 01:27:07;;;;;;;3.90;2.20;;;;;;;11.88;71.73;99382.81;1719103;81;20721;-57
2021/06/06 01:29:56;;;;;;;2.22;1.70;;;;;;;11.81;71.66;99384.62;1735061;81;22364;-57
2021/06/06 01:32:48;;;;;;;3.40;2.30;;;;;;;11.75;71.75;99379.09;1729000;81;21098;-57
2021/06/06 01:35:32;;;;;;;3.83;2.30;;;;;;;11.71;71.72;99382.42;1722199;81;21095;-58
2021/06/06 01:38:16;;;;;;;7.85;2.90;;;;;;;11.66;71.77;99389.89;1691478;81;21958;-57
2021/06/06 01:40:44;;;;;;;3.52;2.10;;;;;;;11.64;71.87;99385.58;1723548;81;21412;-57
2021/06/06 01:43:20;;;;;;;3.73;2.30;;;;;;;11.64;71.90;99380.19;1728944;81;21512;-57
2021/06/06 01:45:58;;;;;;;2.53;1.77;;;;;;;11.65;71.94;99377.37;1688610;82;21061;-58
2021/06/06 01:48:25;;;;;;;5.62;2.33;;;;;;;11.67;71.96;99385.38;1723715;82;20938;-55
2021/06/06 01:51:16;;;;;;;5.10;2.35;;;;;;;11.68;72.02;99389.81;1697932;82;21678;-57
2021/06/06 01:53:44;;;;;;;6.60;2.70;;;;;;;11.67;72.26;99386.72;1713183;82;21050;-57
2021/06/06 01:56:10;;;;;;;8.90;2.37;;;;;;;11.66;72.60;99388.55;1712814;82;21113;-57
2021/06/06 01:58:42;;;;;;;7.15;2.90;;;;;;;11.64;72.75;99387.80;1713561;82;21062;-57
2021/06/06 02:01:19;;;;;;;5.03;2.17;;;;;;;11.62;72.85;99386.13;1720400;81;21140;-57
2021/06/06 02:03:51;;;;;;;4.25;2.17;;;;;;;11.62;73.06;99386.13;1724636;81;21100;-57
2021/06/06 02:06:24;;;;;;;4.65;2.35;;;;;;;11.61;73.30;99386.61;1720307;81;20922;-57
2021/06/06 02:08:53;;;;;;;7.13;2.53;;;;;;;11.61;73.46;99392.00;1722888;81;20973;-57
2021/06/06 02:11:34;;;;;;;2.92;2.35;;;;;;;11.62;73.70;99392.88;1721900;81;21231;-57
2021/06/06 02:14:10;;;;;;;5.45;2.58;;;;;;;11.64;73.72;99394.53;1720337;81;21084;-57
2021/06/06 02:16:45;;;;;;;3.90;3.02;;;;;;;11.68;73.82;99397.42;1703499;81;21066;-57
2021/06/06 02:19:14;;;;;;;6.10;3.00;;;;;;;11.73;73.99;99389.95;1724008;81;21108;-57
2021/06/06 02:21:45;;;;;;;4.05;2.65;;;;;;;11.79;74.09;99390.09;1734136;81;21492;-57
2021/06/06 02:24:14;;;;;;;5.42;2.70;;;;;;;11.85;74.13;99391.07;1738607;81;21489;-57
2021/06/06 02:27:06;;;;;;;3.35;2.45;;;;;;;11.89;74.30;99388.59;1728645;81;21156;-56
2021/06/06 02:29:54;;;;;;;10.93;3.12;;;;;;;11.92;74.26;99383.48;1723022;81;21334;-57
2021/06/06 02:32:34;;;;;;;2.95;2.65;;;;;;;11.95;74.51;99381.96;1713692;81;21169;-59
2021/06/06 02:35:22;;;;;;;7.15;3.40;;;;;;;12.00;74.59;99385.23;1716052;81;21248;-56
2021/06/06 02:38:14;;;;;;;5.92;2.50;;;;;;;12.05;74.76;99381.80;1738144;81;21307;-56
2021/06/06 02:40:56;;;;;;;5.45;3.37;;;;;;;12.08;74.84;99384.30;1724031;81;20981;-57
2021/06/06 02:43:30;;;;;;;5.40;4.20;;;;;;;12.14;75.11;99374.51;1721423;82;21643;-57
2021/06/06 02:45:59;;;;;;;5.70;3.98;;;;;;;12.20;75.25;99378.66;1718281;82;21061;-57
2021/06/06 02:48:36;;;;;;;7.85;4.17;;;;;;;12.25;75.39;99380.61;1727966;81;21144;-55
2021/06/06 02:51:07;;;;;;;4.62;3.98;;;;;;;12.29;75.37;99383.49;1717796;82;21529;-57
2021/06/06 02:53:58;;;;;;;5.45;3.25;;;;;;;12.34;75.36;99380.89;1719220;81;21034;-55
2021/06/06 02:56:31;;;;;;;4.85;2.90;;;;;;;12.37;75.41;99383.41;1719479;81;21025;-57
2021/06/06 02:59:19;;;;;;;6.65;4.50;;;;;;;12.41;75.42;99384.98;1726223;81;21052;-57
2021/06/06 03:01:56;;;;;;;5.78;3.85;;;;;;;12.44;75.54;99389.30;1735224;81;21395;-55
2021/06/06 03:04:25;;;;;;;6.33;4.55;;;;;;;12.44;75.41;99391.52;1739415;81;20973;-55
2021/06/06 03:07:03;;;;;;;5.40;3.55;;;;;;;12.46;75.39;99391.42;1727460;81;20975;-55
2021/06/06 03:09:32;;;;;;;5.75;3.50;;;;;;;12.47;75.49;99388.64;1731305;81;21040;-56
2021/06/06 03:12:03;;;;;;;4.20;3.87;;;;;;;12.51;75.62;99387.47;1724325;81;20906;-56
2021/06/06 03:14:30;;;;;;;8.18;3.90;;;;;;;12.57;75.74;99392.13;1719778;82;21075;-57
2021/06/06 03:17:06;;;;;;;4.95;3.08;;;;;;;12.61;75.83;99394.52;1725822;81;20903;-55
2021/06/06 03:19:37;;;;;;;;;;;;;;;12.64;75.94;99394.82;1722991;82;21841;-58
2021/06/06 03:22:06;;;;;;;7.17;3.58;;;;;;;12.68;76.10;99394.52;1723033;81;20203;-57
2021/06/06 03:24:49;;;;;;;5.20;2.90;;;;;;;12.71;76.12;99399.73;1703221;82;20915;-57
2021/06/06 03:27:16;;;;;;;8.93;3.62;;;;;;;12.77;76.02;99399.34;1677997;82;21374;-58
2021/06/06 03:30:01;;;;;;;7.67;4.17;;;;;;;12.84;75.71;99402.05;1720474;82;21044;-56
2021/06/06 03:32:31;;;;;;;8.58;3.83;;;;;;;12.88;75.68;99402.25;1718917;81;21414;-55
2021/06/06 03:34:59;;;;;;;8.43;3.85;;;;;;;12.93;75.61;99403.30;1726531;81;20915;-58
2021/06/06 03:37:27;;;;;;;5.28;4.60;;;;;;;12.98;75.54;99400.32;1691446;82;21376;-55
2021/06/06 03:39:57;;;;;;;5.47;4.53;;;;;;;13.02;75.50;99403.20;1712265;82;21378;-56
2021/06/06 03:42:25;;;;;;;8.00;4.53;;;;;;;13.07;75.50;99402.44;1710679;82;21050;-55
2021/06/06 03:44:53;;;;;;;4.53;3.95;;;;;;;13.13;75.43;99400.23;1711970;82;21376;-55
2021/06/06 03:47:22;;;;;;;6.55;3.95;;;;;;;13.20;75.55;99411.52;1712621;81;21034;-56
2021/06/06 03:49:49;;;;;;;4.72;4.25;;;;;;;13.25;75.69;99410.75;1731747;81;20951;-57
2021/06/06 03:52:16;;;;;;;4.08;3.08;;;;;;;13.31;75.75;99401.37;1729893;81;21432;-57
2021/06/06 03:54:44;;;;;;;8.65;4.72;;;;;;;13.37;75.72;99407.72;1701138;82;21131;-55
2021/06/06 03:57:11;;;;;;;4.65;3.75;;;;;;;13.41;75.99;99400.68;1719589;81;21122;-55
2021/06/06 03:59:38;;;;;;;6.05;4.35;;;;;;;13.47;75.98;99405.67;1716647;82;21469;-57
2021/06/06 04:02:04;;;;;;;6.60;4.55;;;;;;;13.53;76.10;99405.75;1721202;81;21031;-56
2021/06/06 04:04:33;;;;;;;7.50;3.37;;;;;;;13.58;76.38;99409.03;1737933;81;21102;-54
2021/06/06 04:06:59;;;;;;;3.90;3.50;;;;;;;13.62;76.37;99407.36;1717499;82;21070;-55
2021/06/06 04:09:27;;;;;;;5.35;3.40;;;;;;;13.66;76.52;99416.64;1693745;81;21088;-55
2021/06/06 04:11:57;;;;;;;5.90;4.22;;;;;;;13.68;76.56;99412.00;1725830;81;22077;-56
2021/06/06 04:14:24;;;;;;;5.47;3.25;;;;;;;13.73;76.66;99406.66;1721711;82;21034;-56
2021/06/06 04:16:55;;;;;;;7.80;2.90;;;;;;;13.79;76.71;99403.54;1710998;82;21074;-55
2021/06/06 04:19:22;;;;;;;8.08;4.75;;;;;;;13.88;76.90;99408.34;1712247;81;21125;-55
2021/06/06 04:21:49;;;;;;;7.17;4.62;;;;;;;13.96;76.83;99399.22;1705606;82;21197;-55
2021/06/06 04:24:16;;;;;;;8.80;4.58;;;;;;;14.01;76.53;99390.80;1696664;82;21087;-57
2021/06/06 04:26:45;;;;;;;7.60;5.70;;;;;;;14.08;75.94;99396.17;1713927;82;21114;-56
2021/06/06 04:29:12;;;;;;;8.50;3.62;;;;;;;14.14;75.63;99389.47;1709710;82;21094;-57
2021/06/06 04:31:39;;;;;;;6.58;4.83;;;;;;;14.21;75.68;99379.95;1712324;82;21182;-57
2021/06/06 04:34:10;;;;;;;4.45;4.03;;;;;;;14.28;75.46;99380.80;1706169;82;21078;-57
2021/06/06 04:36:36;;;;;;;6.17;4.03;;;;;;;14.35;75.21;99379.39;1717177;81;21094;-57
2021/06/06 04:39:04;;;;;;;5.47;4.28;;;;;;;14.45;75.00;99386.91;1712808;81;21073;-57
2021/06/06 04:41:33;;;;;;;7.40;4.00;;;;;;;14.53;75.03;99392.66;1711585;81;21126;-57
2021/06/06 04:43:59;;;;;;;4.22;3.50;;;;;;;14.64;75.06;99390.91;1712173;81;21106;-57
2021/06/06 04:46:26;;;;;;;4.80;4.35;;;;;;;14.76;74.85;99395.95;1710859;82;21375;-55
2021/06/06 04:48:54;;;;;;;7.78;4.87;;;;;;;14.83;74.68;99399.96;1709652;82;21060;-56
2021/06/06 04:51:23;;;;;;;5.80;4.80;;;;;;;14.88;73.97;99399.16;1709871;81;21081;-56
2021/06/06 04:54:01;;;;;;;9.08;3.80;;;;;;;14.94;73.88;99393.78;1704333;82;21800;-54
2021/06/06 04:56:28;;;;;;;8.63;5.33;;;;;;;15.02;73.32;99399.03;1711705;81;21064;-54
2021/06/06 04:58:56;;;;;;;13.45;5.40;;;;;;;15.11;72.84;99405.63;1711763;82;20998;-55
2021/06/06 05:01:25;;;;;;;8.83;5.15;;;;;;;15.20;72.38;99404.10;1695069;82;21441;-54
2021/06/06 05:03:52;;;;;;;11.43;5.20;;;;;;;15.27;72.21;99399.95;1707301;82;21157;-57
2021/06/06 05:06:20;;;;;;;10.68;5.60;;;;;;;15.38;72.13;99400.05;1711353;82;21138;-56
2021/06/06 05:08:48;;;;;;;6.85;4.45;;;;;;;15.50;72.23;99400.48;1709029;82;21652;-54
2021/06/06 05:11:15;;;;;;;6.55;4.58;;;;;;;15.59;72.29;99397.13;1716588;81;21645;-57
2021/06/06 05:13:43;;;;;;;4.28;3.87;;;;;;;15.66;72.21;99392.10;1721099;82;20905;-56
2021/06/06 05:16:10;;;;;;;6.37;3.92;;;;;;;15.75;72.22;99400.91;1735681;81;21069;-55
2021/06/06 05:18:38;;;;;;;10.32;3.90;;;;;;;15.82;71.90;99393.55;1726739;81;21541;-56
2021/06/06 05:21:06;;;;;;;7.92;4.60;;;;;;;15.92;71.63;99401.00;1719329;81;21407;-56
2021/06/06 05:23:34;;;;;;;8.60;4.00;;;;;;;16.01;71.38;99400.30;1718724;81;21050;-55
2021/06/06 05:26:03;;;;;;;5.85;3.58;;;;;;;16.10;71.37;99392.81;1726031;81;22396;-57
2021/06/06 05:28:30;;;;;;;6.37;3.83;;;;;;;16.19;71.21;99394.83;1712451;81;21074;-56
2021/06/06 05:30:57;;;;;;;6.00;3.47;;;;;;;16.28;70.13;99394.13;1718621;81;21469;-55
2021/06/06 05:33:23;;;;;;;7.35;2.72;;;;;;;16.36;69.41;99393.03;1722550;81;21109;-56
2021/06/06 05:35:50;;;;;;;7.40;3.30;;;;;;;16.51;68.86;99400.48;1725543;81;21121;-56
2021/06/06 05:38:19;;;;;;;7.55;3.33;;;;;;;16.51;68.86;99400.48;1728205;81;21103;-58
2021/06/06 05:40:47;;;;;;;4.80;3.33;;;;;;;16.54;67.55;99402.47;1719072;81;20950;-56
2021/06/06 05:43:14;;;;;;;5.60;4.25;;;;;;;16.57;67.05;99398.66;1716912;81;21455;-55
2021/06/06 05:45:40;;;;;;;6.87;3.27;;;;;;;16.61;67.08;99402.39;1719601;81;21062;-55
2021/06/06 05:48:08;;;;;;;8.35;3.52;;;;;;;16.79;67.29;99396.50;1714490;81;21090;-55
2021/06/06 05:50:38;;;;;;;6.87;3.35;;;;;;;16.79;67.29;99396.50;1713628;81;21696;-57
2021/06/06 05:53:07;;;;;;;6.97;3.47;;;;;;;16.88;66.81;99395.77;1718444;81;21093;-56
2021/06/06 05:55:33;;;;;;;11.70;3.15;;;;;;;16.95;66.93;99392.43;1716107;82;21347;-55
2021/06/06 05:58:00;;;;;;;4.37;1.80;;;;;;;17.06;66.72;99398.87;1712955;82;21133;-55
2021/06/06 06:00:33;;;;;;;3.52;1.75;;;;;;;17.15;66.04;99395.41;1717339;82;21395;-56
2021/06/06 06:03:00;;;;;;;4.60;1.40;;;;;;;17.21;65.10;99390.83;1729703;81;20879;-55
2021/06/06 06:05:26;;;;;;;1.75;1.25;;;;;;;17.27;64.15;99391.67;1727011;81;21088;-55
2021/06/06 06:07:53;;;;;;;1.42;0.90;;;;;;;17.29;64.10;99385.13;1735651;80;21859;-56
2021/06/06 06:10:25;;;;;;;4.53;1.02;;;;;;;17.32;62.69;99391.70;1728208;81;22109;-56
2021/06/06 06:12:51;;;;;;;1.80;0.72;;;;;;;17.38;62.37;99387.59;1707108;81;21153;-56
2021/06/06 06:15:18;;;;;;;3.02;0.80;;;;;;;17.45;62.22;99392.90;1709417;81;21184;-55
2021/06/06 06:17:46;;;;;;;2.17;1.00;;;;;;;17.51;61.20;99392.91;1715096;81;21459;-56
2021/06/06 06:20:16;;;;;;;1.98;0.90;;;;;;;17.55;61.21;99391.66;1728976;81;21377;-55
2021/06/06 06:22:42;;;;;;;3.87;1.10;;;;;;;17.60;60.78;99388.08;1688822;83;21011;-56
2021/06/06 06:25:10;;;;;;;3.20;0.95;;;;;;;17.66;59.99;99393.03;1675060;84;22028;-55
2021/06/06 06:27:36;;;;;;;4.10;1.00;;;;;;;17.71;59.42;99388.92;1676412;84;21016;-58
2021/06/06 06:30:13;;;;;;;2.30;0.90;;;;;;;17.80;59.51;99387.30;1671768;84;20979;-55
2021/06/06 06:32:39;;;;;;;2.55;0.90;;;;;;;17.87;58.78;99384.42;1722887;81;21130;-56
2021/06/06 06:35:07;;;;;;;4.05;0.95;;;;;;;17.92;57.94;99384.91;1732557;80;20970;-57
2021/06/06 06:37:33;;;;;;;3.15;1.00;;;;;;;17.98;57.51;99385.75;1721040;82;20970;-56
2021/06/06 06:39:59;;;;;;;4.83;1.40;;;;;;;18.05;57.59;99386.95;1720386;81;21036;-58
2021/06/06 06:42:26;;;;;;;1.35;0.85;;;;;;;18.12;58.15;99387.30;1722858;81;20891;-59
2021/06/06 06:44:53;;;;;;;2.60;0.93;;;;;;;18.19;58.09;99387.66;1719943;81;21879;-58
2021/06/06 06:47:20;;;;;;;3.02;1.10;;;;;;;18.25;58.15;99388.49;1716314;81;21373;-57
2021/06/06 06:49:47;;;;;;;3.25;1.02;;;;;;;18.30;57.80;99387.59;1720895;81;21402;-57
2021/06/06 06:52:15;;;;;;;6.55;1.32;;;;;;;18.35;58.07;99391.66;1720528;81;20970;-56
2021/06/06 06:54:42;;;;;;;2.98;0.93;;;;;;;18.42;58.00;99386.55;1709776;81;21393;-56
2021/06/06 06:57:09;;;;;;;3.47;0.90;;;;;;;18.46;57.68;99392.95;1723880;81;21082;-55
2021/06/06 06:59:35;;;;;;;8.55;1.65;;;;;;;18.49;57.47;99385.02;1720161;81;21056;-55
2021/06/06 07:02:03;;;;;;;5.08;1.00;;;;;;;18.54;57.31;99373.23;1723322;81;21116;-56
2021/06/06 07:04:30;;;;;;;2.58;0.80;;;;;;;18.60;57.49;99370.50;1708825;81;21088;-56
2021/06/06 07:06:56;;;;;;;3.72;1.37;;;;;;;18.68;57.26;99366.59;1730000;81;21042;-56
2021/06/06 07:09:25;;;;;;;2.72;0.70;;;;;;;18.75;57.54;99371.88;1720131;81;21125;-57
2021/06/06 07:11:54;;;;;;;4.03;0.90;;;;;;;18.83;56.86;99368.83;1710303;82;21521;-56
2021/06/06 07:14:20;;;;;;;6.87;1.00;;;;;;;18.89;56.14;99361.47;1715786;81;21136;-56
2021/06/06 07:16:47;;;;;;;6.55;0.82;;;;;;;18.96;56.24;99362.31;1711845;82;21063;-57
2021/06/06 07:19:15;;;;;;;4.53;1.30;;;;;;;18.99;55.62;99361.52;1712489;81;21069;-58
2021/06/06 07:21:41;;;;;;;6.97;0.98;;;;;;;19.03;55.37;99363.48;1712106;82;21717;-57
2021/06/06 07:24:09;;;;;;;2.85;0.80;;;;;;;19.07;55.73;99364.92;1719422;81;21462;-56
2021/06/06 07:26:43;;;;;;;3.77;0.80;;;;;;;19.12;55.02;99366.26;1718450;82;21077;-58
2021/06/06 07:29:12;;;;;;;1.25;0.88;;;;;;;19.17;54.63;99361.24;1719676;81;21069;-56
2021/06/06 07:31:40;;;;;;;3.53;0.90;;;;;;;19.22;54.53;99363.04;1723621;81;21466;-57
2021/06/06 07:34:06;;;;;;;2.47;0.65;;;;;;;19.25;54.61;99362.78;1720535;81;21692;-56
2021/06/06 07:36:33;;;;;;;1.50;0.68;;;;;;;19.28;54.25;99361.15;1718136;82;21082;-58
2021/06/06 07:39:00;;;;;;;1.35;0.55;;;;;;;19.35;55.27;99363.31;1717573;81;21154;-56
2021/06/06 07:41:27;;;;;;;4.42;0.60;;;;;;;19.40;55.42;99364.61;1717391;81;21143;-55
2021/06/06 07:43:57;;;;;;;1.40;0.70;;;;;;;19.43;54.36;99364.34;1720451;81;21011;-56
2021/06/06 07:46:23;;;;;;;3.77;0.68;;;;;;;19.45;52.92;99356.03;1717528;81;21158;-55
2021/06/06 07:48:50;;;;;;;6.43;1.13;;;;;;;19.47;53.16;99362.22;1728040;81;20987;-56
2021/06/06 07:51:17;;;;;;;5.83;0.88;;;;;;;19.45;52.73;99355.53;1719199;81;21092;-56
2021/06/06 07:53:44;;;;;;;3.12;0.70;;;;;;;19.48;52.59;99356.62;1722244;81;21755;-57
2021/06/06 07:56:10;;;;;;;4.42;0.62;;;;;;;19.51;52.23;99356.36;1718756;81;21054;-57
2021/06/06 07:58:37;;;;;;;1.40;0.60;;;;;;;19.55;52.50;99357.81;1718106;81;21131;-56
2021/06/06 08:01:06;;;;;;;2.30;0.68;;;;;;;19.63;52.86;99358.48;1720779;81;21511;-58
2021/06/06 08:03:33;;;;;;;0.80;0.50;;;;;;;19.69;53.20;99354.31;1714198;82;21068;-59
2021/06/06 08:06:01;;;;;;;1.82;0.60;;;;;;;19.74;52.81;99358.83;1715141;82;21341;-58
2021/06/06 08:08:28;;;;;;;3.52;0.72;;;;;;;19.76;51.97;99353.59;1711249;82;21269;-58
2021/06/06 08:10:58;;;;;;;6.05;0.70;;;;;;;19.79;51.93;99362.88;1712975;82;21443;-58
2021/06/06 08:13:26;;;;;;;0.90;0.60;;;;;;;19.80;51.87;99356.42;1721706;82;21474;-59
2021/06/06 08:15:55;;;;;;;5.22;0.70;;;;;;;19.81;52.22;99359.52;1660960;84;21492;-58
2021/06/06 08:18:28;;;;;;;1.10;0.60;;;;;;;19.84;52.72;99369.27;1689709;82;22453;-59
2021/06/06 08:20:59;;;;;;;1.80;0.53;;;;;;;19.86;52.88;99368.64;1702226;83;21486;-56
2021/06/06 08:23:26;;;;;;;1.00;0.60;;;;;;;19.86;53.13;99368.14;1731663;81;21806;-58
2021/06/06 08:25:52;;;;;;;11.48;0.80;;;;;;;19.83;50.92;99366.17;1733869;81;21603;-58
2021/06/06 08:28:19;;;;;;;2.08;1.02;;;;;;;19.79;50.67;99366.98;1733725;81;21126;-58
2021/06/06 08:30:49;;;;;;;1.37;0.50;;;;;;;19.79;50.97;99371.58;1709778;82;21092;-58
2021/06/06 08:33:16;;;;;;;1.80;0.70;;;;;;;19.80;50.99;99371.94;1715863;82;20916;-56
2021/06/06 08:35:43;;;;;;;4.90;0.60;;;;;;;19.79;50.64;99381.14;1708813;82;21093;-57
2021/06/06 08:38:10;;;;;;;3.47;0.60;;;;;;;19.78;50.37;99378.05;1721473;82;20986;-56
2021/06/06 08:40:56;;;;;;;5.28;0.50;;;;;;;19.74;50.23;99377.45;1712798;82;20939;-56
2021/06/06 08:43:25;;;;;;;1.62;0.50;;;;;;;19.72;49.89;99382.21;1703806;82;21057;-57
2021/06/06 08:45:58;;;;;;;2.58;0.55;;;;;;;19.72;50.70;99384.08;1714653;82;21103;-56
2021/06/06 08:48:24;;;;;;;3.62;0.72;;;;;;;19.72;51.00;99386.30;1720625;81;21133;-57
2021/06/06 08:51:04;;;;;;;3.10;0.70;;;;;;;19.73;51.65;99385.31;1718506;82;21077;-57
2021/06/06 08:53:59;;;;;;;2.08;0.90;;;;;;;19.74;52.63;99385.64;1720642;81;21034;-57
2021/06/06 08:56:30;;;;;;;2.70;0.75;;;;;;;19.74;53.97;99387.00;1724195;81;22048;-56
2021/06/06 08:59:03;;;;;;;1.40;0.70;;;;;;;19.75;55.08;99389.23;1721933;81;20958;-55
2021/06/06 09:01:55;;;;;;;0.90;0.70;;;;;;;19.73;55.12;99382.58;1737223;81;21080;-56
2021/06/06 09:04:27;;;;;;;3.85;0.80;;;;;;;19.74;54.92;99380.67;1725378;81;21133;-56
2021/06/06 09:07:19;;;;;;;4.37;0.60;;;;;;;19.75;55.52;99379.17;1711408;82;21047;-57
2021/06/06 09:09:49;;;;;;;2.25;0.70;;;;;;;19.76;55.49;99379.55;1725009;81;21053;-57
2021/06/06 09:12:22;;;;;;;1.85;0.50;;;;;;;19.79;56.60;99371.58;1720461;81;20949;-57
2021/06/06 09:14:50;;;;;;;2.08;0.50;;;;;;;19.79;56.54;99369.71;1728091;81;21791;-56
2021/06/06 09:19:25;;;;;;;0.68;0.40;;;;;;;19.83;53.29;99364.31;1795863;78;28646;-55
2021/06/06 09:21:59;;;;;;;6.92;0.85;;;;;;;19.79;52.75;99373.81;1767949;79;21052;-59
2021/06/06 09:24:35;;;;;;;1.40;0.60;;;;;;;19.82;52.07;99369.94;1765019;79;21068;-58
2021/06/06 09:27:15;;;;;;;0.50;0.30;;;;;;;19.87;50.80;99370.37;1762951;79;21057;-58
2021/06/06 09:29:42;;;;;;;3.77;0.40;;;;;;;19.87;49.69;99364.41;1768161;79;20934;-56
2021/06/06 09:32:18;;;;;;;0.75;0.50;;;;;;;19.87;49.81;99361.67;1770254;79;21031;-55
2021/06/06 09:34:58;;;;;;;0.98;0.35;;;;;;;19.88;50.28;99360.67;1763148;79;20890;-55
2021/06/06 09:37:27;;;;;;;2.10;0.30;;;;;;;19.88;51.00;99363.41;1763960;79;21088;-55
2021/06/06 09:40:01;;;;;;;1.40;0.30;;;;;;;19.92;50.66;99368.92;1771640;79;20906;-55
2021/06/06 09:42:46;;;;;;;0.75;0.40;;;;;;;19.96;50.94;99360.82;1754416;79;21401;-55
2021/06/06 09:45:32;;;;;;;0.80;0.30;;;;;;;20.02;50.81;99358.88;1742458;81;20944;-58
2021/06/06 09:48:10;;;;;;;0.50;0.37;;;;;;;20.08;49.89;99356.06;1739357;81;21552;-56
2021/06/06 09:50:43;;;;;;;1.95;0.40;;;;;;;20.14;50.00;99348.67;1739503;81;21085;-57
2021/06/06 09:53:16;;;;;;;1.98;0.47;;;;;;;20.21;50.25;99351.19;1742898;81;21741;-55
2021/06/06 09:55:42;;;;;;;1.30;0.30;;;;;;;20.28;49.96;99352.33;1734127;81;20913;-55
2021/06/06 09:58:20;;;;;;;2.58;0.40;;;;;;;20.39;50.06;99348.62;1743635;81;20911;-55
2021/06/06 10:00:50;;;;;;;2.35;0.50;;;;;;;20.51;50.53;99350.66;1741818;81;21629;-54
2021/06/06 10:03:42;;;;;;;0.95;0.40;;;;;;;20.64;50.80;99348.50;1737205;81;21902;-57
2021/06/06 10:06:31;;;;;;;2.08;0.40;;;;;;;20.74;50.01;99347.98;1713719;81;21048;-54
2021/06/06 10:09:11;;;;;;;1.60;0.40;;;;;;;20.86;49.89;99342.67;1740221;81;21079;-53
2021/06/06 10:11:55;;;;;;;0.60;0.40;;;;;;;20.99;49.21;99340.48;1742876;81;21386;-54
2021/06/06 10:14:37;;;;;;;0.50;0.40;;;;;;;21.03;48.89;99339.66;1735727;81;21041;-58
2021/06/06 10:17:07;;;;;;;2.20;0.47;;;;;;;21.08;49.14;99334.61;1740185;81;21491;-54
2021/06/06 10:19:57;;;;;;;1.52;0.47;;;;;;;21.11;48.51;99328.81;1734968;81;21963;-56
2021/06/06 10:22:29;;;;;;;0.82;0.40;;;;;;;21.12;48.58;99331.91;1733293;81;20986;-57
2021/06/06 10:25:06;;;;;;;2.77;0.50;;;;;;;21.18;48.95;99324.49;1733548;81;21552;-55
2021/06/06 10:27:37;;;;;;;5.65;0.60;;;;;;;21.25;48.76;99326.14;1731457;81;21113;-58
2021/06/06 10:30:18;;;;;;;4.70;0.60;;;;;;;21.26;48.45;99324.63;1729708;81;21056;-56
2021/06/06 10:32:46;;;;;;;4.62;0.65;;;;;;;21.31;49.01;99322.78;1730836;81;21141;-54
2021/06/06 10:35:25;;;;;;;2.77;0.50;;;;;;;21.36;48.83;99317.70;1730770;81;21105;-56
2021/06/06 10:37:55;;;;;;;2.83;0.50;;;;;;;21.42;48.61;99317.98;1734559;81;21058;-54
2021/06/06 10:40:29;;;;;;;2.08;0.55;;;;;;;21.50;48.54;99314.47;1735604;81;21461;-56
2021/06/06 10:43:10;;;;;;;3.83;0.50;;;;;;;21.57;48.32;99312.83;1696957;81;21597;-58
2021/06/06 10:45:48;;;;;;;0.80;0.60;;;;;;;21.63;48.00;99310.84;1736652;81;21324;-56
2021/06/06 10:48:25;;;;;;;4.72;0.60;;;;;;;21.69;47.91;99308.00;1734080;81;21105;-55
2021/06/06 10:51:28;;;;;;;1.80;0.60;;;;;;;21.73;48.04;99302.55;1735123;81;20978;-60
2021/06/06 10:53:57;;;;;;;0.90;0.60;;;;;;;21.74;47.78;99292.81;1689206;81;21627;-55
2021/06/06 10:56:50;;;;;;;3.37;0.50;;;;;;;21.76;47.75;99294.90;1734892;81;22061;-54
2021/06/06 10:59:28;;;;;;;3.45;0.60;;;;;;;21.73;45.48;99286.98;1728004;81;21371;-56
2021/06/06 11:01:55;;;;;;;1.77;0.53;;;;;;;21.60;45.81;99289.77;1733921;81;21050;-55
2021/06/06 11:04:29;;;;;;;2.50;0.50;;;;;;;21.56;46.22;99288.33;1733556;81;21073;-59
2021/06/06 11:07:20;;;;;;;1.75;0.50;;;;;;;21.58;46.44;99292.65;1730723;81;21054;-54
2021/06/06 11:10:10;;;;;;;0.70;0.40;;;;;;;21.58;46.44;99292.65;1732194;81;22051;-57
2021/06/06 11:12:39;;;;;;;1.05;0.40;;;;;;;21.59;46.00;99285.30;1668202;84;21695;-57
2021/06/06 11:15:36;;;;;;;3.37;0.50;;;;;;;21.56;45.26;99283.72;1733356;81;21046;-55
2021/06/06 11:18:19;;;;;;;0.72;0.40;;;;;;;21.55;44.79;99277.89;1736922;81;21519;-55
2021/06/06 11:21:01;;;;;;;5.45;0.40;;;;;;;21.58;44.65;99277.59;1733511;81;21607;-56
2021/06/06 11:23:50;;;;;;;3.12;0.98;;;;;;;21.65;44.45;99271.84;1738256;81;21045;-56
2021/06/06 11:26:33;;;;;;;0.88;0.50;;;;;;;21.76;44.33;99266.13;1707152;81;21394;-56
2021/06/06 11:29:20;;;;;;;3.00;1.37;;;;;;;21.86;42.38;99261.95;1734540;81;21536;-59
2021/06/06 11:32:17;;;;;;;1.00;0.90;;;;;;;21.87;42.89;99262.27;1706089;82;21108;-59
2021/06/06 11:35:26;;;;;;;4.40;1.30;;;;;;;21.87;41.61;99259.53;1687396;82;21118;-59
2021/06/06 11:37:59;;;;;;;2.25;0.47;;;;;;;21.86;42.52;99260.58;1734431;81;21082;-58
2021/06/06 11:40:41;;;;;;;0.90;0.40;;;;;;;21.90;43.44;99255.12;1731850;81;21368;-60
2021/06/06 11:43:25;;;;;;;2.33;0.40;;;;;;;22.00;42.69;99251.82;1727805;81;21129;-60
2021/06/06 11:45:52;;;;;;;1.67;0.40;;;;;;;22.10;43.05;99248.99;1735774;81;20990;-59
2021/06/06 11:48:34;;;;;;;0.93;0.40;;;;;;;22.19;43.86;99239.81;1733640;81;22329;-56
2021/06/06 11:51:01;;;;;;;0.85;0.40;;;;;;;22.28;43.39;99239.36;1734769;81;21105;-58
2021/06/06 11:53:39;;;;;;;5.30;0.40;;;;;;;22.37;43.48;99230.17;1711357;81;21451;-55
2021/06/06 11:56:14;;;;;;;2.80;0.50;;;;;;;22.41;43.04;99225.56;1731716;81;21361;-61
2021/06/06 11:59:11;;;;;;;1.40;0.47;;;;;;;22.46;43.11;99235.52;1702202;81;21041;-57
2021/06/06 12:01:52;;;;;;;0.62;0.40;;;;;;;22.45;42.25;99231.09;1729122;81;21028;-60